Time;durP1;ratioP1;P1;durP2;ratioP2;P2;SDS_P1;SDS_P2;PMS_P1;PMS_P2;Temp;Humidity;BMP_temperature;BMP_pressure;BME280_temperature;BME280_humidity;BME280_pressure;Samples;Min_cycle;Max_cycle;Signal;HPM_P1;HPM_P2
2022/06/10 00:00:58;;;;;;;10.02;4.03;;;;;;;14.45;100.00;101984.88;5220327;28;20467;-89
2022/06/10 00:03:29;;;;;;;5.00;3.25;;;;;;;14.79;100.00;102023.59;5245732;23;20439;-62
2022/06/10 00:06:04;;;;;;;5.50;3.20;;;;;;;14.80;100.00;102027.97;5222165;28;20031;-65
2022/06/10 00:08:38;;;;;;;8.63;3.10;;;;;;;14.80;100.00;102012.47;5223384;28;20056;-63
2022/06/10 00:11:10;;;;;;;2.97;2.65;;;;;;;14.83;100.00;102024.75;5222376;28;20471;-65
2022/06/10 00:13:43;;;;;;;5.78;3.28;;;;;;;14.82;100.00;102014.94;5223551;28;20025;-64
2022/06/10 00:16:17;;;;;;;4.35;3.28;;;;;;;14.84;100.00;102020.94;5223589;28;20021;-64
2022/06/10 00:18:49;;;;;;;2.95;2.75;;;;;;;14.84;100.00;102019.03;5223638;28;20028;-64
2022/06/10 00:21:21;;;;;;;9.30;4.32;;;;;;;14.88;100.00;102026.69;5223499;28;20085;-64
2022/06/10 00:23:51;;;;;;;8.35;4.05;;;;;;;14.90;100.00;102019.09;5222779;28;20495;-64
2022/06/10 00:26:22;;;;;;;4.97;2.72;;;;;;;14.90;100.00;102021.81;5223227;28;20029;-65
2022/06/10 00:28:52;;;;;;;13.75;3.58;;;;;;;14.95;100.00;102030.03;5222831;28;20029;-63
2022/06/10 00:31:23;;;;;;;9.32;3.05;;;;;;;14.94;100.00;102012.06;5227264;28;20025;-65
2022/06/10 00:33:53;;;;;;;2.80;2.60;;;;;;;14.97;100.00;102019.72;5227371;28;20032;-64
2022/06/10 00:36:24;;;;;;;8.70;3.45;;;;;;;14.99;100.00;102025.72;5227200;28;20028;-65
2022/06/10 00:49:15;;;;;;;2.70;2.50;;;;;;;14.82;100.00;101993.19;5227736;28;20345;-64
2022/06/10 00:55:13;;;;;;;5.82;2.75;;;;;;;14.92;100.00;102006.06;5227703;28;20031;-64
2022/06/10 00:57:46;;;;;;;3.75;3.47;;;;;;;14.92;100.00;102008.78;5227615;28;20338;-64
2022/06/10 01:00:18;;;;;;;4.80;4.10;;;;;;;14.90;100.00;102002.78;5227572;28;20024;-64
2022/06/10 01:02:48;;;;;;;3.75;3.55;;;;;;;14.88;100.00;102011.19;5226248;28;20119;-64
2022/06/10 01:08:47;;;;;;;7.22;3.65;;;;;;;14.87;100.00;102015.00;5226714;28;20036;-64
2022/06/10 01:11:36;;;;;;;3.80;3.60;;;;;;;14.88;100.00;102021.25;5227659;28;20519;-64
2022/06/10 01:14:37;;;;;;;11.10;3.65;;;;;;;14.90;100.00;102014.47;5225197;28;20120;-63
2022/06/10 01:17:07;;;;;;;3.55;3.35;;;;;;;14.92;100.00;102022.38;5226211;28;20048;-64
2022/06/10 01:20:01;;;;;;;7.65;3.83;;;;;;;14.90;100.00;102022.66;5225907;28;20137;-63
2022/06/10 01:22:58;;;;;;;6.32;3.67;;;;;;;14.91;100.00;102021.56;5225322;28;20021;-63
2022/06/10 01:25:34;;;;;;;6.03;2.65;;;;;;;14.91;100.00;102020.75;5227658;28;20055;-63
2022/06/10 01:28:42;;;;;;;5.80;3.90;;;;;;;14.91;100.00;102026.19;5228058;28;20060;-63
2022/06/10 01:31:26;;;;;;;10.40;2.72;;;;;;;14.45;100.00;101953.09;5226076;28;20025;-64
2022/06/10 01:34:05;;;;;;;3.85;2.78;;;;;;;14.92;100.00;102023.22;5226178;28;20028;-64
2022/06/10 01:40:55;;;;;;;7.85;3.28;;;;;;;14.95;100.00;102024.59;5225004;28;20040;-64
2022/06/10 01:43:48;;;;;;;3.33;3.03;;;;;;;14.94;100.00;102010.19;5224714;28;20405;-64
2022/06/10 01:46:30;;;;;;;2.55;2.30;;;;;;;14.96;100.00;102013.47;5225454;28;20032;-64
2022/06/10 01:49:24;;;;;;;2.67;2.47;;;;;;;14.99;100.00;102017.56;5225855;28;20497;-64
2022/06/10 01:52:19;;;;;;;4.22;3.42;;;;;;;14.99;100.00;102023.00;5225265;28;20032;-64
2022/06/10 01:55:18;;;;;;;4.18;2.85;;;;;;;15.00;100.00;102022.75;5226462;28;20021;-65
2022/06/10 01:58:04;;;;;;;3.47;3.17;;;;;;;14.98;100.00;102018.66;5227582;28;20028;-64
2022/06/10 02:00:38;;;;;;;7.78;4.65;;;;;;;14.97;100.00;102008.84;5226994;28;20033;-64
2022/06/10 02:06:43;;;;;;;6.38;3.67;;;;;;;15.03;100.00;102007.78;5226242;28;20183;-64
2022/06/10 02:09:52;;;;;;;10.20;4.30;;;;;;;15.03;100.00;102013.22;5225119;28;20040;-65
2022/06/10 02:12:35;;;;;;;8.27;2.92;;;;;;;15.04;100.00;102014.88;5225124;28;20327;-64
2022/06/10 02:15:20;;;;;;;3.40;2.53;;;;;;;15.05;100.00;102021.97;5224084;28;20098;-64
2022/06/10 02:17:57;;;;;;;7.80;3.00;;;;;;;15.08;100.00;102018.72;5224582;28;20319;-64
2022/06/10 02:20:31;;;;;;;8.13;3.20;;;;;;;15.06;100.00;102023.59;5226192;28;20025;-64
2022/06/10 02:23:05;;;;;;;6.72;3.17;;;;;;;15.08;100.00;102016.00;5226069;28;20542;-64
2022/06/10 02:25:42;;;;;;;6.25;3.35;;;;;;;15.06;100.00;102018.97;5224444;28;20028;-64
2022/06/10 02:28:19;;;;;;;7.55;3.83;;;;;;;15.10;100.00;102019.28;5224115;28;20464;-64
2022/06/10 02:30:56;;;;;;;3.13;2.92;;;;;;;15.10;100.00;102024.72;5224451;28;20054;-64
2022/06/10 02:33:27;;;;;;;3.17;2.20;;;;;;;15.14;100.00;102025.88;5224408;28;20025;-63
2022/06/10 02:43:09;;;;;;;7.93;3.25;;;;;;;15.16;100.00;102037.31;5225580;28;20159;-64
2022/06/10 02:46:05;;;;;;;17.53;3.97;;;;;;;15.13;100.00;102041.38;5224230;28;20115;-63
2022/06/10 02:48:50;;;;;;;5.85;3.75;;;;;;;15.10;100.00;102036.44;5224629;28;20040;-64
2022/06/10 02:51:21;;;;;;;4.75;3.70;;;;;;;15.11;100.00;102042.69;5225674;28;20025;-64
2022/06/10 02:53:51;;;;;;;9.60;4.43;;;;;;;15.12;100.00;102044.34;5223330;28;20035;-64
2022/06/10 02:56:27;;;;;;;4.68;3.40;;;;;;;15.13;100.00;102046.00;5224209;28;20027;-64
2022/06/10 03:02:09;;;;;;;2.60;2.50;;;;;;;15.10;100.00;102041.88;5225809;28;20036;-64
2022/06/10 03:05:06;;;;;;;3.57;3.33;;;;;;;15.08;100.00;102040.50;5223703;28;20033;-64
2022/06/10 03:11:21;;;;;;;3.80;3.50;;;;;;;15.11;100.00;102053.59;5225556;28;20040;-63
2022/06/10 03:17:37;;;;;;;4.90;4.00;;;;;;;15.10;100.00;102058.19;5224200;28;20146;-63
2022/06/10 03:20:29;;;;;;;3.58;2.97;;;;;;;15.05;100.00;102041.00;5225248;28;20029;-63
2022/06/10 03:23:18;;;;;;;6.75;2.35;;;;;;;15.10;100.00;102058.19;5222119;28;20365;-63
2022/06/10 03:25:51;;;;;;;2.90;2.67;;;;;;;15.10;100.00;102058.19;5222294;28;20033;-63
2022/06/10 03:28:31;;;;;;;5.68;3.80;;;;;;;15.10;100.00;102058.19;5223621;28;20501;-63
2022/06/10 03:31:21;;;;;;;12.82;4.38;;;;;;;15.13;100.00;102052.25;5222504;28;20033;-63
2022/06/10 03:33:55;;;;;;;;;;;;;;;15.15;100.00;102060.16;5222908;28;20021;-63
2022/06/10 03:36:28;;;;;;;5.78;3.03;;;;;;;15.16;100.00;102050.91;5223964;28;20480;-64
2022/06/10 03:39:45;;;;;;;6.10;4.68;;;;;;;15.14;100.00;102053.91;5224010;28;20041;-64
2022/06/10 03:42:53;;;;;;;5.90;3.85;;;;;;;15.09;100.00;102056.56;5223717;28;20524;-64
2022/06/10 03:45:28;;;;;;;5.43;3.55;;;;;;;15.05;100.00;102060.03;5223514;28;20125;-64
2022/06/10 03:47:59;;;;;;;9.02;5.75;;;;;;;15.04;100.00;102064.66;5224351;28;20396;-65
2022/06/10 03:50:35;;;;;;;5.00;3.65;;;;;;;15.01;100.00;102065.22;5224416;28;20017;-65
2022/06/10 03:53:07;;;;;;;5.20;4.60;;;;;;;14.99;100.00;102059.19;5224091;28;20029;-65
2022/06/10 03:55:37;;;;;;;8.75;3.13;;;;;;;15.01;100.00;102067.09;5222532;28;20101;-64
2022/06/10 03:58:09;;;;;;;5.45;4.55;;;;;;;14.98;100.00;102064.88;5223600;28;20033;-65
2022/06/10 04:00:40;;;;;;;4.05;3.75;;;;;;;15.02;100.00;102063.28;5224472;28;20116;-65
2022/06/10 04:06:38;;;;;;;8.27;4.60;;;;;;;14.81;100.00;102011.41;5229663;28;20067;-64
2022/06/10 04:09:11;;;;;;;6.88;4.10;;;;;;;15.06;100.00;102050.81;5228754;28;20029;-64
2022/06/10 04:11:42;;;;;;;5.30;4.32;;;;;;;15.04;100.00;102047.53;5228652;28;20021;-64
2022/06/10 04:14:12;;;;;;;8.95;5.32;;;;;;;15.06;100.00;102053.53;5228313;28;20504;-65
2022/06/10 04:16:43;;;;;;;9.35;5.03;;;;;;;15.08;100.00;102064.97;5228547;28;20116;-64
2022/06/10 04:19:13;;;;;;;3.95;3.75;;;;;;;15.15;100.00;102071.03;5226719;28;20106;-64
2022/06/10 04:25:11;;;;;;;4.80;4.28;;;;;;;15.25;100.00;102063.00;5228567;28;20028;-64
2022/06/10 04:38:04;;;;;;;3.25;2.88;;;;;;;15.28;100.00;102045.31;5229005;28;20033;-65
2022/06/10 04:40:36;;;;;;;4.47;3.20;;;;;;;15.15;100.00;102019.34;5227626;28;20029;-64
2022/06/10 04:43:08;;;;;;;4.43;3.53;;;;;;;15.44;100.00;102060.69;5227311;28;20518;-64
2022/06/10 04:45:54;;;;;;;4.43;3.55;;;;;;;15.28;100.00;102039.88;5227392;28;20029;-64
2022/06/10 04:48:24;;;;;;;4.88;3.58;;;;;;;15.43;100.00;102048.16;5213220;22;20471;-80
2022/06/10 04:50:55;;;;;;;5.10;2.80;;;;;;;15.56;100.00;102061.38;5210148;28;20095;-79
2022/06/10 04:53:25;;;;;;;4.25;2.58;;;;;;;15.47;100.00;102035.69;5212570;28;20418;-77
2022/06/10 04:55:56;;;;;;;6.78;3.95;;;;;;;15.62;100.00;102051.34;5210726;28;20441;-80
2022/06/10 04:58:27;;;;;;;11.00;3.50;;;;;;;15.65;100.00;102051.63;5227741;28;20033;-78
2022/06/10 05:00:57;;;;;;;3.67;3.47;;;;;;;15.63;100.00;102042.91;5223233;28;20104;-79
2022/06/10 05:03:28;;;;;;;6.80;3.40;;;;;;;15.47;100.00;102020.16;5212155;28;20033;-79
2022/06/10 05:05:59;;;;;;;4.88;2.45;;;;;;;15.45;100.00;102008.72;5209450;28;20026;-79
2022/06/10 05:08:29;;;;;;;5.20;4.35;;;;;;;15.68;100.00;102042.94;5210566;28;20032;-79
2022/06/10 05:11:00;;;;;;;5.75;3.58;;;;;;;15.78;100.00;102044.94;5210196;28;20369;-78
2022/06/10 05:14:14;;;;;;;5.68;4.10;;;;;;;15.91;100.00;102055.34;5211171;28;20477;-79
2022/06/10 05:16:44;;;;;;;4.50;4.18;;;;;;;15.69;100.00;102016.53;5208165;28;20041;-78
2022/06/10 05:19:15;;;;;;;11.93;4.43;;;;;;;15.91;100.00;102041.72;5207663;28;20095;-81
2022/06/10 05:21:46;;;;;;;2.80;2.60;;;;;;;15.70;100.00;102002.66;5189353;28;20040;-80
2022/06/10 05:24:16;;;;;;;7.15;4.10;;;;;;;16.03;100.00;102056.00;5191387;28;20028;-78
2022/06/10 05:26:47;;;;;;;4.20;3.55;;;;;;;15.94;100.00;102043.94;5191982;28;20176;-81
2022/06/10 05:29:18;;;;;;;6.75;3.83;;;;;;;16.09;100.00;102054.13;5190136;28;20022;-80
2022/06/10 05:31:48;;;;;;;4.68;3.70;;;;;;;15.99;100.00;102035.81;5206014;28;20411;-79
2022/06/10 05:37:08;;;;;;;3.33;3.08;;;;;;;15.91;100.00;102019.94;5192884;28;20164;-79
2022/06/10 05:39:38;;;;;;;2.38;2.17;;;;;;;16.16;100.00;102049.25;5210220;28;20048;-79
2022/06/10 05:42:09;;;;;;;4.97;3.15;;;;;;;15.97;100.00;102010.72;5214147;28;20032;-79
2022/06/10 05:44:45;;;;;;;6.82;3.13;;;;;;;16.26;100.00;102056.66;5213023;28;20101;-77
2022/06/10 05:47:36;;;;;;;3.30;3.13;;;;;;;16.31;100.00;102056.69;5208998;28;20067;-77
2022/06/10 05:50:18;;;;;;;8.10;3.25;;;;;;;16.36;100.00;102054.00;5225861;28;20132;-79
2022/06/10 05:52:49;;;;;;;8.65;4.00;;;;;;;16.41;100.00;102054.03;5212558;28;20021;-78
2022/06/10 05:55:21;;;;;;;7.10;3.80;;;;;;;16.38;100.00;102041.72;5213688;28;20021;-80
2022/06/10 05:57:51;;;;;;;3.13;2.90;;;;;;;16.48;100.00;102051.84;5215159;28;20034;-80
2022/06/10 06:00:27;;;;;;;4.45;3.53;;;;;;;16.42;100.00;102042.03;5214668;28;20065;-81
2022/06/10 06:05:30;;;;;;;8.95;3.80;;;;;;;16.39;100.00;102042.56;5228109;28;20053;-79
2022/06/10 06:08:00;;;;;;;7.97;3.08;;;;;;;16.50;100.00;102049.66;5247427;28;20025;-79
2022/06/10 06:10:31;;;;;;;3.20;3.00;;;;;;;16.44;100.00;102045.31;5231689;28;20382;-79
2022/06/10 06:13:02;;;;;;;5.95;3.78;;;;;;;16.50;100.00;102055.94;5247895;28;20029;-81
2022/06/10 06:15:32;;;;;;;4.85;3.10;;;;;;;16.50;100.00;102069.59;5229045;28;20111;-79
2022/06/10 06:18:03;;;;;;;4.78;3.25;;;;;;;16.51;100.00;102084.84;5228605;28;20029;-80
2022/06/10 06:20:33;;;;;;;7.13;4.10;;;;;;;16.52;100.00;102066.59;5230528;28;20032;-80
2022/06/10 06:23:04;;;;;;;2.85;2.65;;;;;;;16.55;100.00;102061.44;5232765;28;20048;-79
2022/06/10 06:25:35;;;;;;;2.50;2.30;;;;;;;16.59;100.00;102059.00;5230492;28;20017;-81
2022/06/10 06:28:05;;;;;;;2.90;2.25;;;;;;;16.53;100.00;102049.16;5234711;28;20081;-81
2022/06/10 06:30:37;;;;;;;7.05;2.55;;;;;;;16.77;100.00;102082.25;5248085;28;20017;-80
2022/06/10 06:33:09;;;;;;;6.40;3.13;;;;;;;16.80;100.00;102077.09;5233999;28;20025;-81
2022/06/10 06:35:44;;;;;;;3.70;3.05;;;;;;;16.94;100.00;102077.41;5233067;28;20123;-83
2022/06/10 06:38:14;;;;;;;3.00;2.75;;;;;;;16.98;100.00;102066.78;5234941;28;20048;-81
2022/06/10 06:40:45;;;;;;;5.22;2.60;;;;;;;16.93;100.00;102042.22;5234306;28;20075;-81
2022/06/10 06:43:15;;;;;;;8.70;3.75;;;;;;;17.16;100.00;102064.34;5233045;28;20171;-80
2022/06/10 06:45:46;;;;;;;3.50;3.22;;;;;;;16.98;100.00;102017.66;5249350;28;20032;-82
2022/06/10 06:48:16;;;;;;;7.07;2.60;;;;;;;17.40;100.00;102059.19;5232587;28;20057;-81
2022/06/10 06:50:49;;;;;;;3.88;3.15;;;;;;;17.65;100.00;102088.44;5235911;28;20021;-80
2022/06/10 06:53:20;;;;;;;3.45;3.10;;;;;;;17.48;100.00;102079.69;5235312;28;20081;-80
2022/06/10 06:55:50;;;;;;;7.43;3.35;;;;;;;17.58;100.00;102076.16;5235112;28;20036;-80
2022/06/10 06:58:21;;;;;;;6.55;3.08;;;;;;;17.70;100.00;102095.81;5232537;28;20032;-80
2022/06/10 07:00:51;;;;;;;11.48;2.95;;;;;;;17.81;100.00;102097.47;5233003;28;20058;-82
2022/06/10 07:03:22;;;;;;;2.45;2.35;;;;;;;17.83;100.00;102078.88;5233730;28;20033;-81
2022/06/10 07:05:53;;;;;;;11.05;3.28;;;;;;;17.94;100.00;102080.50;5232702;28;20024;-80
2022/06/10 07:08:31;;;;;;;2.35;2.25;;;;;;;17.80;100.00;102044.72;5233838;28;20221;-80
2022/06/10 07:11:04;;;;;;;5.15;3.25;;;;;;;17.75;100.00;102044.72;5232305;28;20461;-83
2022/06/10 07:13:37;;;;;;;2.85;2.65;;;;;;;18.08;100.00;102095.25;5233683;28;20304;-80
2022/06/10 07:16:08;;;;;;;13.45;4.00;;;;;;;17.89;100.00;102050.47;5233284;28;20025;-81
2022/06/10 07:18:39;;;;;;;7.32;2.97;;;;;;;17.88;100.00;102044.19;5234552;28;20024;-81
2022/06/10 07:21:09;;;;;;;6.60;2.58;;;;;;;18.33;100.00;102099.00;5234909;28;20029;-81
2022/06/10 07:23:40;;;;;;;5.80;3.30;;;;;;;18.01;100.00;102020.09;5233740;28;20074;-83
2022/06/10 07:26:11;;;;;;;3.08;2.78;;;;;;;18.55;100.00;102094.00;5234932;28;20137;-81
2022/06/10 07:28:41;;;;;;;5.70;3.78;;;;;;;18.52;100.00;102078.16;5234332;28;20025;-82
2022/06/10 07:31:12;;;;;;;5.10;3.10;;;;;;;18.76;100.00;102089.31;5233538;28;20060;-82
2022/06/10 07:33:42;;;;;;;6.20;3.45;;;;;;;18.80;100.00;102071.22;5234628;28;20033;-82
2022/06/10 07:36:13;;;;;;;5.07;2.60;;;;;;;18.98;100.00;102062.38;5235477;28;20079;-81
2022/06/10 07:38:44;;;;;;;2.70;2.40;;;;;;;19.27;100.00;102069.84;5233086;28;20053;-81
2022/06/10 07:44:04;;;;;;;7.97;2.75;;;;;;;19.86;100.00;102099.81;5233284;28;20410;-82
2022/06/10 07:46:34;;;;;;;6.22;4.05;;;;;;;19.98;100.00;102089.25;5233122;28;20120;-82
2022/06/10 07:49:05;;;;;;;7.72;3.20;;;;;;;20.30;100.00;102087.81;5241118;28;20036;-77
2022/06/10 07:51:36;;;;;;;8.07;3.97;;;;;;;20.27;100.00;102045.34;5245783;28;20081;-79
2022/06/10 07:54:06;;;;;;;5.57;4.20;;;;;;;20.73;100.00;102097.78;5230516;28;20021;-79
2022/06/10 07:56:37;;;;;;;6.30;3.00;;;;;;;20.83;100.00;102108.59;5231394;28;20540;-79
2022/06/10 07:59:08;;;;;;;5.10;3.28;;;;;;;20.74;100.00;102096.66;5229749;28;20083;-79
2022/06/10 08:01:39;;;;;;;7.30;2.47;;;;;;;20.60;100.00;102060.03;5230714;28;20029;-79
2022/06/10 08:04:09;;;;;;;12.15;3.40;;;;;;;20.96;100.00;102092.53;5230535;28;20060;-80
2022/06/10 08:06:46;;;;;;;6.05;3.53;;;;;;;21.11;100.00;102087.63;5231980;28;20031;-83
2022/06/10 08:09:20;;;;;;;4.40;2.22;;;;;;;21.26;100.00;102094.84;5231255;28;20056;-84
2022/06/10 08:11:52;;;;;;;8.07;3.53;;;;;;;21.30;100.00;102101.41;5232861;28;20031;-81
2022/06/10 08:14:23;;;;;;;3.90;3.30;;;;;;;21.12;100.00;102088.44;5233612;28;20112;-82
2022/06/10 08:16:54;;;;;;;8.13;3.92;;;;;;;21.16;100.00;102105.94;5232473;28;20061;-82
2022/06/10 08:19:25;;;;;;;4.88;3.45;;;;;;;21.08;100.00;102090.13;5233187;28;20021;-83
2022/06/10 08:24:44;;;;;;;8.43;4.35;;;;;;;21.66;100.00;102089.81;5233664;28;20086;-80
2022/06/10 08:27:15;;;;;;;6.97;3.28;;;;;;;22.03;100.00;102078.72;5233657;28;20029;-81
2022/06/10 08:29:45;;;;;;;7.57;3.42;;;;;;;22.55;100.00;102104.94;5233859;28;20053;-83
2022/06/10 08:32:16;;;;;;;4.63;3.47;;;;;;;23.04;100.00;102089.59;5234672;28;20025;-81
2022/06/10 08:34:47;;;;;;;7.90;3.92;;;;;;;23.21;100.00;102086.19;5234140;28;20043;-81
2022/06/10 08:37:17;;;;;;;3.70;3.40;;;;;;;22.89;100.00;102049.44;5249216;28;20601;-81
2022/06/10 08:39:48;;;;;;;4.00;2.92;;;;;;;23.11;100.00;102089.16;5249731;28;20040;-80
2022/06/10 08:42:39;;;;;;;4.28;3.53;;;;;;;22.92;100.00;102097.59;5233848;28;20028;-84
2022/06/10 08:45:34;;;;;;;6.97;2.55;;;;;;;22.51;100.00;102092.13;5231835;28;20134;-81
2022/06/10 08:48:23;;;;;;;7.13;2.83;;;;;;;22.20;100.00;102100.97;5233994;28;20028;-82
2022/06/10 08:51:06;;;;;;;10.50;3.60;;;;;;;22.28;100.00;102093.91;5235965;28;20029;-81
2022/06/10 08:53:51;;;;;;;10.70;4.60;;;;;;;22.70;100.00;102090.03;5237398;28;20031;-80
2022/06/10 08:56:33;;;;;;;3.05;2.83;;;;;;;23.39;100.00;102085.16;5237699;28;20370;-80
2022/06/10 08:59:24;;;;;;;14.50;4.43;;;;;;;23.82;100.00;102092.97;5236314;28;20027;-82
2022/06/10 09:02:19;;;;;;;10.55;3.75;;;;;;;23.90;100.00;102093.03;5236954;28;20025;-82
2022/06/10 09:04:57;;;;;;;20.73;5.43;;;;;;;24.09;100.00;102090.03;5237427;28;20029;-83
2022/06/10 09:07:42;;;;;;;10.82;4.97;;;;;;;24.31;100.00;102091.13;5258238;28;20029;-84
2022/06/10 09:10:24;;;;;;;5.70;3.33;;;;;;;24.43;100.00;102055.44;5243150;28;20025;-83
2022/06/10 09:13:37;;;;;;;4.72;4.30;;;;;;;24.63;100.00;102095.44;5242042;28;20029;-84
2022/06/10 09:16:46;;;;;;;6.35;3.17;;;;;;;24.20;100.00;102099.66;5233627;28;20033;-83
2022/06/10 09:19:41;;;;;;;9.38;4.05;;;;;;;23.97;100.00;102102.78;5214346;28;20048;-85
2022/06/10 09:22:38;;;;;;;3.10;2.88;;;;;;;23.22;100.00;102057.47;5236032;28;20025;-82
2022/06/10 09:25:14;;;;;;;8.73;3.13;;;;;;;23.36;100.00;102094.09;5235088;28;20041;-83
2022/06/10 09:27:51;;;;;;;3.80;3.45;;;;;;;23.26;100.00;102075.03;5252690;28;20107;-81
2022/06/10 09:30:47;;;;;;;3.88;3.50;;;;;;;23.64;100.00;102091.25;5235338;28;20021;-81
2022/06/10 09:33:29;;;;;;;4.13;3.47;;;;;;;23.98;100.00;102096.94;5225274;28;20514;-81
2022/06/10 09:36:08;;;;;;;3.85;3.08;;;;;;;24.28;100.00;102094.50;5237225;28;20100;-81
2022/06/10 09:39:00;;;;;;;5.53;4.65;;;;;;;24.62;100.00;102100.16;5242479;28;20095;-82
2022/06/10 09:41:33;;;;;;;6.03;3.10;;;;;;;25.21;100.00;102093.09;5238277;28;20032;-82
2022/06/10 09:44:26;;;;;;;5.63;3.72;;;;;;;25.48;100.00;102089.19;5237756;28;20052;-81
2022/06/10 09:47:31;;;;;;;3.58;3.20;;;;;;;25.33;100.00;102091.66;5236640;28;20367;-80
2022/06/10 09:50:13;;;;;;;11.38;4.07;;;;;;;25.46;100.00;102091.47;5234761;28;20403;-81
2022/06/10 09:52:55;;;;;;;7.80;3.80;;;;;;;25.62;100.00;102090.97;5237226;28;20029;-81
2022/06/10 09:55:52;;;;;;;5.05;3.25;;;;;;;25.82;100.00;102093.06;5236406;28;20025;-82
2022/06/10 09:59:00;;;;;;;5.85;4.05;;;;;;;25.58;100.00;102082.50;5238805;28;20027;-86
2022/06/10 10:01:37;;;;;;;5.60;3.33;;;;;;;25.27;100.00;102090.19;5236466;28;20174;-84
2022/06/10 10:04:44;;;;;;;8.27;3.83;;;;;;;25.13;100.00;102080.09;5236739;28;20695;-82
2022/06/10 10:07:20;;;;;;;8.60;4.82;;;;;;;25.44;100.00;102090.97;5240382;28;20033;-83
2022/06/10 10:09:50;;;;;;;3.55;3.33;;;;;;;25.55;100.00;102086.75;5240050;28;20031;-81
2022/06/10 10:12:41;;;;;;;4.43;2.15;;;;;;;25.48;100.00;102069.00;5237889;28;20029;-85
2022/06/10 10:15:11;;;;;;;3.00;2.72;;;;;;;25.34;100.00;102091.31;5237782;28;20024;-81
2022/06/10 10:17:59;;;;;;;10.93;3.92;;;;;;;25.46;100.00;102085.94;5237826;28;20557;-82
2022/06/10 10:20:48;;;;;;;4.22;2.03;;;;;;;25.66;100.00;102078.13;5236583;28;20115;-82
2022/06/10 10:23:23;;;;;;;5.07;3.90;;;;;;;26.15;100.00;102062.81;5235985;28;20051;-81
2022/06/10 10:25:55;;;;;;;10.65;3.70;;;;;;;26.75;100.00;102070.81;5236106;28;20021;-81
2022/06/10 10:28:33;;;;;;;9.98;4.07;;;;;;;27.28;100.00;102077.59;5235302;28;20021;-81
2022/06/10 10:31:15;;;;;;;9.35;4.68;;;;;;;27.56;100.00;102086.97;5239353;28;20052;-85
2022/06/10 10:33:46;;;;;;;3.75;2.78;;;;;;;27.14;100.00;102083.44;5239823;28;20047;-83
2022/06/10 10:36:44;;;;;;;3.63;3.42;;;;;;;26.72;100.00;102073.47;5240867;28;20035;-83
2022/06/10 10:39:25;;;;;;;5.53;2.53;;;;;;;27.14;100.00;102074.31;5229520;28;20029;-84
2022/06/10 10:41:59;;;;;;;2.45;2.30;;;;;;;26.82;100.00;102065.56;5238573;28;20025;-83
2022/06/10 10:44:39;;;;;;;6.28;3.28;;;;;;;26.64;100.00;102050.19;5236271;28;20033;-81
2022/06/10 10:47:10;;;;;;;6.10;3.28;;;;;;;26.55;100.00;102066.09;5234474;28;20041;-81
2022/06/10 10:49:48;;;;;;;5.00;3.03;;;;;;;26.23;100.00;102054.50;5234497;28;20043;-81
2022/06/10 10:52:27;;;;;;;6.85;3.45;;;;;;;25.83;100.00;102064.25;5235934;28;20032;-82
2022/06/10 10:55:05;;;;;;;11.25;4.00;;;;;;;25.83;100.00;102067.00;5235999;28;20024;-84
2022/06/10 10:57:38;;;;;;;4.17;2.80;;;;;;;26.25;100.00;102059.69;5238164;28;20021;-86
2022/06/10 11:00:11;;;;;;;5.40;3.78;;;;;;;26.51;100.00;102065.13;5237748;28;20024;-84
2022/06/10 11:02:50;;;;;;;6.85;4.30;;;;;;;26.87;100.00;102070.06;5240532;28;20418;-84
2022/06/10 11:05:37;;;;;;;2.35;2.25;;;;;;;26.92;100.00;102064.34;5237485;28;20048;-81
2022/06/10 11:08:36;;;;;;;7.22;3.05;;;;;;;26.83;100.00;102060.84;5235204;28;20025;-81
2022/06/10 11:11:29;;;;;;;4.68;2.53;;;;;;;26.89;100.00;102042.84;5247941;28;20064;-82
2022/06/10 11:14:38;;;;;;;6.30;2.72;;;;;;;26.72;100.00;102060.41;5250014;28;20033;-80
2022/06/10 11:17:12;;;;;;;3.38;2.78;;;;;;;26.36;100.00;102060.13;5234708;28;20056;-83
2022/06/10 11:20:01;;;;;;;3.47;3.22;;;;;;;26.78;100.00;102063.81;5234844;28;20112;-81
2022/06/10 11:22:38;;;;;;;9.32;4.88;;;;;;;27.16;100.00;102038.72;5233402;28;20115;-81
2022/06/10 11:25:17;;;;;;;4.95;2.97;;;;;;;27.46;100.00;102056.84;5231696;28;20067;-80
2022/06/10 11:27:47;;;;;;;4.45;3.65;;;;;;;27.78;100.00;102051.66;5233736;28;20029;-80
2022/06/10 11:30:21;;;;;;;3.20;2.70;;;;;;;27.97;100.00;102038.06;5234298;28;20075;-82
2022/06/10 11:33:03;;;;;;;5.45;2.45;;;;;;;27.55;100.00;102021.53;5234820;28;20060;-80
2022/06/10 11:35:37;;;;;;;7.57;2.45;;;;;;;27.46;100.00;102029.13;5233624;28;20021;-83
2022/06/10 11:38:15;;;;;;;4.28;1.63;;;;;;;27.75;100.00;102044.81;5233526;28;20021;-82
2022/06/10 11:40:46;;;;;;;6.63;2.53;;;;;;;27.51;100.00;102047.50;5234915;28;20025;-82
2022/06/10 11:43:22;;;;;;;9.25;4.55;;;;;;;26.92;99.66;102023.56;5235568;28;20024;-82
2022/06/10 11:46:04;;;;;;;5.70;4.43;;;;;;;26.89;100.00;102037.28;5237157;28;20486;-82
2022/06/10 11:48:50;;;;;;;3.03;2.83;;;;;;;26.52;100.00;102011.34;5236853;28;20063;-82
2022/06/10 11:51:47;;;;;;;3.45;2.80;;;;;;;26.60;100.00;102020.72;5235699;28;20120;-82
2022/06/10 11:54:39;;;;;;;4.38;2.72;;;;;;;26.63;100.00;102037.47;5236274;28;20017;-81
2022/06/10 12:00:34;;;;;;;4.72;3.55;;;;;;;27.03;100.00;102025.97;5236329;28;20048;-83
2022/06/10 12:06:28;;;;;;;8.38;4.15;;;;;;;27.46;100.00;102023.56;5212221;28;20049;-81
2022/06/10 12:09:21;;;;;;;8.32;4.43;;;;;;;27.80;98.50;102027.13;5203183;28;20037;-79
2022/06/10 12:12:01;;;;;;;8.40;5.28;;;;;;;27.86;97.11;102025.75;5209282;28;20034;-80
2022/06/10 12:14:43;;;;;;;4.93;3.13;;;;;;;28.14;97.04;102018.38;5222795;28;20030;-82
2022/06/10 12:17:28;;;;;;;4.95;4.55;;;;;;;28.09;95.34;101996.38;5197687;28;20014;-82
2022/06/10 12:20:27;;;;;;;5.25;4.03;;;;;;;28.48;94.77;102014.31;5196667;28;20030;-82
2022/06/10 12:23:05;;;;;;;8.13;4.40;;;;;;;28.43;93.93;101999.84;5196771;28;20037;-82
2022/06/10 12:26:16;;;;;;;4.78;3.72;;;;;;;28.19;94.90;101997.88;5196289;28;20021;-84
2022/06/10 12:28:53;;;;;;;4.97;4.57;;;;;;;28.48;96.32;102007.97;5180362;28;20039;-78
2022/06/10 12:31:51;;;;;;;4.00;3.28;;;;;;;28.77;94.37;101999.31;5215365;28;20033;-82
2022/06/10 12:34:24;;;;;;;8.80;3.78;;;;;;;29.03;93.75;102001.69;5201619;28;20053;-80
2022/06/10 12:37:07;;;;;;;4.07;2.70;;;;;;;29.30;92.97;101982.53;5203536;28;20041;-79
2022/06/10 12:40:05;;;;;;;9.00;4.13;;;;;;;29.65;92.01;101993.84;5203714;28;20025;-79
2022/06/10 12:42:49;;;;;;;4.50;4.20;;;;;;;29.44;88.04;102000.47;5206533;28;20117;-82
2022/06/10 12:45:33;;;;;;;5.63;3.47;;;;;;;28.96;89.13;101998.69;5197991;28;20068;-80
2022/06/10 12:48:27;;;;;;;9.45;5.40;;;;;;;28.69;91.76;101996.66;5212672;28;20038;-80
2022/06/10 12:51:02;;;;;;;3.58;3.38;;;;;;;28.40;91.25;101995.81;5197075;28;20030;-79
2022/06/10 12:54:10;;;;;;;6.00;3.70;;;;;;;27.75;91.18;101996.81;5201336;28;20010;-77
2022/06/10 12:56:41;;;;;;;4.68;3.70;;;;;;;27.13;92.98;101993.09;5202790;28;20042;-80
2022/06/10 12:59:21;;;;;;;10.20;4.13;;;;;;;26.87;94.71;101996.03;5198979;28;20084;-81
2022/06/10 13:01:52;;;;;;;6.25;3.85;;;;;;;26.81;93.79;102000.19;5199076;28;20037;-81
2022/06/10 13:04:23;;;;;;;6.07;5.00;;;;;;;26.68;94.52;101998.50;5212094;28;20044;-80
2022/06/10 13:07:00;;;;;;;8.52;4.32;;;;;;;26.70;95.57;102001.75;5210051;28;20090;-81
2022/06/10 13:09:39;;;;;;;4.50;3.83;;;;;;;26.75;95.00;102003.50;5209980;28;20025;-81
2022/06/10 13:12:10;;;;;;;4.55;4.07;;;;;;;26.82;96.06;102001.81;5194537;28;20438;-80
2022/06/10 13:14:47;;;;;;;6.60;5.70;;;;;;;26.61;96.08;101961.38;5193316;28;20030;-80
2022/06/10 13:17:19;;;;;;;2.35;2.00;;;;;;;27.30;94.89;102005.16;5194017;28;20073;-80
2022/06/10 13:19:53;;;;;;;2.63;2.42;;;;;;;27.46;93.65;102000.56;5194249;28;20435;-79
2022/06/10 13:22:26;;;;;;;3.42;3.13;;;;;;;27.52;94.04;101996.41;5208967;28;20468;-79
2022/06/10 13:24:56;;;;;;;5.95;4.05;;;;;;;27.81;95.70;101998.22;5225957;28;20109;-78